Nieuw Amsterdam — PBWQ — position and weather

sailwx.info

Track history (hours):
 
Tides and Currents Weather Stations Pressure Air Temp Water Temp Dewpoint Dewpoint Depression Visibility Wind Speed Wind Dir Waves Ship Positions

Nieuw Amsterdam

Last reported at 2018-May-24 01:00 UTC. Time now 2018-May-24 13:52 UTC.
Position N 58°06' W 136°30'.

Length 285 m; draft 8 m.

Type: Passenger vessel. MMSI: 246648000.

Wind from 250 at 14 knots

Barometer 1009.9 mb
Air temperature 10.0 ° C
Visibility: greater than 10.8 NM
Water temperature 12.0 ° C

Date/timePositionNaut miles runAvg speedWind from/ knotsBaromVisibWave heightAir tempDewpointWater temp
2018-May-24 01:00N 58°06' W 136°30'1530.3 250 / 141009.910.8 10.0 12.0
2018-May-24 00:29N 58°19' W 136°13'816.3
2018-May-24 00:00N 58°22' W 136°00'612.2
2018-May-23 23:30N 58°28' W 136°03'917.4
2018-May-23 23:00N 58°37' W 136°05'917.3
2018-May-23 22:30N 58°44' W 136°15'917.6
2018-May-23 21:58N 58°50' W 136°30'1 0.1
2018-May-23 16:12N 58°49' W 136°29'416.6
2018-May-23 15:57N 58°47' W 136°23'816.7
2018-May-23 15:30N 58°42' W 136°12'816.5
2018-May-23 15:00N 58°34' W 136°04'5303.7
2018-May-23 15:00N 58°30' W 136°00'4 7.9 320 / 101014.710.8 7.0 5.412.0
2018-May-23 14:30N 58°26' W 135°60'510.7
2018-May-23 14:00N 58°21' W 135°57'3226.7
2018-May-23 14:00N 58°18' W 135°54'4 8.4 340 / 81014.910.8 7.0 5.212.0
2018-May-23 13:30N 58°18' W 135°46'612.4
2018-May-23 13:00N 58°16' W 135°35'612.6
2018-May-23 12:30N 58°14' W 135°24'712.7
2018-May-23 12:00N 58°12' W 135°12'24 8.1 010 / 41015.410.8 7.0 4.712.0
2018-May-23 09:00N 58°36' W 135°06'3 0.1 110 / 41015.510.8 8.4 10.6
2018-May-22 10:00N 58°36' W 135°00'94 5.2 040 / 101009.3 1.1 8.0 5.812.0
2018-May-21 16:00N 57°06' W 134°06'2713.7 150 / 221007.1 2.2 9.0 6.912.0
2018-May-21 14:00N 56°42' W 134°30'16915.2 170 / 201007.1 5.4 9.0 6.912.0
2018-May-21 02:55N 54°25' W 131°37'1017.1
2018-May-21 02:20N 54°22' W 131°20'617.6
2018-May-21 01:59N 54°21' W 131°10'815.7
2018-May-21 01:30N 54°18' W 130°58'611.5
2018-May-21 01:00N 54°13' W 131°01'917.2
2018-May-21 00:30N 54°05' W 131°01'917.6
2018-May-21 00:00N 53°56' W 130°56'918.5
2018-May-20 23:31N 53°49' W 130°45'918.8
2018-May-20 23:00N 53°43' W 130°33'916.7
2018-May-20 22:30N 53°37' W 130°23'916.8
2018-May-20 21:58N 53°33' W 130°10'7415.4
2018-May-20 17:10N 52°35' W 128°53'315.3
2018-May-20 16:59N 52°32' W 128°53'919.0
2018-May-20 16:31N 52°23' W 128°50'918.6
2018-May-20 16:00N 52°14' W 128°49'917.5
2018-May-20 15:30N 52°06' W 128°45'816.9
2018-May-20 15:01N 51°57' W 128°43'918.4
2018-May-20 14:30N 51°49' W 128°38'918.5
2018-May-20 14:01N 51°40' W 128°33'4265.3
2018-May-20 14:00N 51°36' W 128°30'611.4 250 / 151016.510.8 10.0 5.616.0
2018-May-20 13:30N 51°31' W 128°33'1019.1
2018-May-20 13:01N 51°21' W 128°33'4219.6
2018-May-20 13:00N 51°18' W 128°30'511.3 240 / 81016.110.8 10.0 5.616.0
2018-May-20 12:31N 51°14' W 128°23'918.8
2018-May-20 12:01N 51°09' W 128°11'1019.0
2018-May-20 11:30N 51°03' W 127°59'1019.1
2018-May-20 11:00N 50°58' W 127°46'1019.2
2018-May-20 10:30N 50°52' W 127°34'1019.3
2018-May-20 10:00N 50°48' W 127°20'1019.0
2018-May-20 09:30N 50°45' W 127°06'1019.2
2018-May-20 09:00N 50°41' W 126°52'5427.8
2018-May-20 09:00N 50°36' W 126°54'815.5 280 / 151015.9 5.4 9.3 6.512.5
2018-May-20 08:28N 50°34' W 126°41'3617.7
2018-May-20 06:25N 50°23' W 125°48'1019.4
2018-May-20 05:54N 50°21' W 125°32'614.0
2018-May-20 05:29N 50°18' W 125°25'817.4
2018-May-20 05:00N 50°10' W 125°22'612.7
2018-May-20 04:30N 50°05' W 125°16'814.9
2018-May-20 04:00N 49°58' W 125°10'1019.5
2018-May-20 03:30N 49°51' W 124°60'1121.5
2018-May-20 03:00N 49°44' W 124°48'1121.5
2018-May-20 02:30N 49°37' W 124°35'1122.0
2018-May-20 02:00N 49°28' W 124°24'1123.1
2018-May-20 01:30N 49°23' W 124°08'1523.6
2018-May-20 00:53N 49°20' W 123°46'1023.3
2018-May-20 00:28N 49°19' W 123°31'1022.9
2018-May-20 00:01N 49°19' W 123°15'611.9
2018-May-19 23:30N 49°18' W 123°06'0 0.9
2018-May-19 22:57N 49°17' W 123°07'0 0.0
2018-May-19 22:27N 49°17' W 123°07'0 0.0
2018-May-19 22:00N 49°17' W 123°07'0 0.0
2018-May-19 21:30N 49°17' W 123°07'0 0.0
2018-May-19 21:00N 49°17' W 123°07'0 0.0
2018-May-19 20:27N 49°17' W 123°07'0 0.0
2018-May-19 20:00N 49°17' W 123°07'0 0.0
2018-May-19 19:30N 49°17' W 123°07'0 0.0
2018-May-19 18:50N 49°17' W 123°07'0 0.0
2018-May-19 18:23N 49°17' W 123°07'0 0.0
2018-May-19 17:59N 49°17' W 123°07'0 0.0
2018-May-19 17:23N 49°17' W 123°07'0 0.0
2018-May-19 16:59N 49°17' W 123°07'0 0.0
2018-May-19 16:23N 49°17' W 123°07'0 0.0
2018-May-19 15:59N 49°17' W 123°07'0 0.0
2018-May-19 15:29N 49°17' W 123°07'0 0.0
2018-May-19 14:44N 49°17' W 123°07'0 0.0
2018-May-19 14:29N 49°17' W 123°07'0 0.2
2018-May-19 14:00N 49°17' W 123°07'2 4.3
2018-May-19 13:30N 49°19' W 123°09'510.0
2018-May-19 12:58N 49°19' W 123°17'510.2
2018-May-19 12:27N 49°19' W 123°25'610.2
2018-May-19 11:53N 49°19' W 123°34'610.6
2018-May-19 11:19N 49°19' W 123°43'2 5.5
2018-May-19 11:00N 49°18' W 123°42'5794.4 150 / 121018.110.8 14.012.218.0
2018-May-19 10:59N 49°20' W 123°48'510.5
2018-May-19 10:29N 49°21' W 123°56'510.7
2018-May-19 09:59N 49°22' W 124°04'510.8
2018-May-19 09:30N 49°24' W 124°12'510.7
2018-May-19 09:00N 49°25' W 124°20'5663.2
2018-May-19 09:00N 49°24' W 124°12'1121.8 110 / 201015.310.8 14.010.217.0
2018-May-19 08:30N 49°28' W 124°27'510.2
2018-May-19 07:59N 49°32' W 124°33'510.4
2018-May-19 07:31N 49°35' W 124°38'510.5
2018-May-19 06:59N 49°39' W 124°44'510.4
2018-May-19 06:30N 49°43' W 124°49'510.3
2018-May-19 06:00N 49°47' W 124°54'510.2
2018-May-19 05:30N 49°50' W 124°60'510.3
2018-May-19 05:00N 49°54' W 125°05'510.5
2018-May-19 04:29N 49°58' W 125°11'611.8
2018-May-19 04:00N 50°03' W 125°15'612.8
2018-May-19 03:31N 50°08' W 125°21'815.8
2018-May-19 03:00N 50°16' W 125°24'3114.9
2018-May-19 00:54N 50°28' W 126°09'5315.7
2018-May-18 21:31N 50°50' W 127°26'023.4
2018-May-18 21:30N 50°50' W 127°26'917.2
2018-May-18 21:00N 50°54' W 127°38'816.3
2018-May-18 20:30N 50°59' W 127°48'713.1
2018-May-18 20:01N 51°03' W 127°56'714.7
2018-May-18 19:30N 51°06' W 128°07'816.5
2018-May-18 19:01N 51°10' W 128°18'816.2
2018-May-18 18:31N 51°14' W 128°30'714.2
2018-May-18 18:01N 51°21' W 128°33'815.6
2018-May-18 17:30N 51°29' W 128°33'815.5
2018-May-18 17:01N 51°36' W 128°32'815.3
2018-May-18 16:31N 51°44' W 128°35'815.0
2018-May-18 16:01N 51°49' W 128°43'815.2
2018-May-18 15:30N 51°54' W 128°53'816.0
2018-May-18 15:00N 51°59' W 129°03'815.8
2018-May-18 14:30N 52°04' W 129°13'816.0
2018-May-18 14:00N 52°08' W 129°24'4295.8
2018-May-18 14:00N 52°06' W 129°18'1326.1 230 / 141020.410.8 10.0 7.915.0
2018-May-18 13:30N 52°14' W 129°34'816.3
2018-May-18 13:01N 52°19' W 129°45'816.0
2018-May-18 12:31N 52°25' W 129°53'919.0
2018-May-18 12:01N 52°33' W 130°00'1019.5
2018-May-18 11:30N 52°42' W 130°08'1019.4
2018-May-18 11:01N 52°50' W 130°16'3002177196.2
2018-May-18 11:00N 02°48' W 130°12'30116236.9 210 / 51020.2 5.4 10.0 9.014.0
2018-May-18 10:31N 52°59' W 130°23'1019.2
2018-May-18 10:00N 53°08' W 130°31'1019.4
2018-May-18 09:30N 53°16' W 130°39'1019.5
2018-May-18 09:00N 53°25' W 130°46'919.0
2018-May-18 08:31N 53°34' W 130°51'918.9
2018-May-18 08:00N 53°43' W 130°54'163.0
2018-May-18 08:00N 53°42' W 130°54'1021.6 320 / 81020.010.8 9.7 15.9
2018-May-18 07:31N 53°52' W 130°57'1019.4
2018-May-18 07:00N 54°02' W 130°60'1019.5
2018-May-18 06:31N 54°12' W 131°02'1019.5
2018-May-18 06:00N 54°21' W 131°05'918.6
2018-May-18 05:30N 54°30' W 131°12'1018.0
2018-May-18 04:59N 54°39' W 131°15'919.6
2018-May-18 04:30N 54°48' W 131°11'1019.5
2018-May-18 04:00N 54°57' W 131°08'1916.1
2018-May-18 02:49N 55°14' W 131°25'11 1.1
2018-May-17 17:00N 55°18' W 131°42'23714.7 320 / 161023.110.8 22.0 3.314.0
2018-May-17 00:54N 58°16' W 136°28'821.3
2018-May-17 00:30N 58°18' W 136°13'817.0
2018-May-17 00:00N 58°24' W 136°00'713.1
2018-May-16 23:31N 58°30' W 136°04'816.1
2018-May-16 23:01N 58°38' W 136°06'917.0
2018-May-16 22:30N 58°44' W 136°17'917.4
2018-May-16 22:00N 58°50' W 136°31'6 1.1
2018-May-16 16:12N 58°46' W 136°21'316.7
2018-May-16 15:59N 58°44' W 136°16'816.4
2018-May-16 15:30N 58°38' W 136°06'714.5
2018-May-16 15:01N 58°30' W 136°04'2115.9
2018-May-16 15:00N 58°30' W 136°00'5 9.7 330 / 61024.810.8 4.0 2.811.0
2018-May-16 14:30N 58°25' W 135°58'510.7
2018-May-16 14:00N 58°20' W 135°57'612.1
2018-May-16 13:30N 58°18' W 135°46'713.5
2018-May-16 13:00N 58°16' W 135°34'713.2
2018-May-16 12:30N 58°13' W 135°22'12 7.7
2018-May-16 11:00N 58°12' W 135°00'1212.0 170 / 111023.310.8 6.0 9.0
2018-May-16 10:00N 58°24' W 135°00'37 1.7 270 / 71020.610.8 7.0-0.912.0
2018-May-15 12:00N 59°00' W 135°12'146 6.6 160 / 201022.310.8 8.0 5.812.0
2018-May-14 14:00N 56°36' W 134°24'3618.0 180 / 181021.4 5.4 8.0 5.812.0
2018-May-14 12:00N 56°00' W 134°24'3718.3 250 / 251021.2 5.4 7.0 4.713.0
2018-May-14 10:00N 55°24' W 134°12'5815.9 230 / 351021.310.8 8.0 14.0
2018-May-14 06:19N 54°41' W 133°02'2418.2
2018-May-14 05:01N 54°32' W 132°25'918.5
2018-May-14 04:30N 54°30' W 132°09'918.0
2018-May-14 04:00N 54°28' W 131°54'816.8
2018-May-14 03:30N 54°25' W 131°40'917.6
2018-May-14 03:00N 54°23' W 131°26'917.8
2018-May-14 02:30N 54°21' W 131°11'815.7
2018-May-14 02:00N 54°19' W 130°58'612.0
2018-May-14 01:30N 54°13' W 131°01'815.7
2018-May-14 01:00N 54°05' W 130°59'  
Track history (hours):
 
Tides and Currents Weather Stations Pressure Air Temp Water Temp Dewpoint Dewpoint Depression Visibility Wind Speed Wind Dir Waves Ship Positions

Nieuw Amsterdam

Last reported at 2018-May-24 01:00 UTC. Time now 2018-May-24 13:52 UTC.
Position N 58°06' W 136°30'.

Length 285 m; draft 8 m.

Type: Passenger vessel. MMSI: 246648000.

Wind from 250 at 14 knots

Barometer 1009.9 mb
Air temperature 10.0 ° C
Visibility: greater than 10.8 NM
Water temperature 12.0 ° C

Date/timePositionNaut miles runAvg speedWind from/ knotsBaromVisibWave heightAir tempDewpointWater temp
2018-May-24 01:00N 58°06' W 136°30'1530.3 250 / 141009.910.8 10.0 12.0
2018-May-24 00:29N 58°19' W 136°13'816.3
2018-May-24 00:00N 58°22' W 136°00'612.2
2018-May-23 23:30N 58°28' W 136°03'917.4
2018-May-23 23:00N 58°37' W 136°05'917.3
2018-May-23 22:30N 58°44' W 136°15'917.6
2018-May-23 21:58N 58°50' W 136°30'1 0.1
2018-May-23 16:12N 58°49' W 136°29'416.6
2018-May-23 15:57N 58°47' W 136°23'816.7
2018-May-23 15:30N 58°42' W 136°12'816.5
2018-May-23 15:00N 58°34' W 136°04'5303.7
2018-May-23 15:00N 58°30' W 136°00'4 7.9 320 / 101014.710.8 7.0 5.412.0
2018-May-23 14:30N 58°26' W 135°60'510.7
2018-May-23 14:00N 58°21' W 135°57'3226.7
2018-May-23 14:00N 58°18' W 135°54'4 8.4 340 / 81014.910.8 7.0 5.212.0
2018-May-23 13:30N 58°18' W 135°46'612.4
2018-May-23 13:00N 58°16' W 135°35'612.6
2018-May-23 12:30N 58°14' W 135°24'712.7
2018-May-23 12:00N 58°12' W 135°12'24 8.1 010 / 41015.410.8 7.0 4.712.0
2018-May-23 09:00N 58°36' W 135°06'3 0.1 110 / 41015.510.8 8.4 10.6
2018-May-22 10:00N 58°36' W 135°00'94 5.2 040 / 101009.3 1.1 8.0 5.812.0
2018-May-21 16:00N 57°06' W 134°06'2713.7 150 / 221007.1 2.2 9.0 6.912.0
2018-May-21 14:00N 56°42' W 134°30'16915.2 170 / 201007.1 5.4 9.0 6.912.0
2018-May-21 02:55N 54°25' W 131°37'1017.1
2018-May-21 02:20N 54°22' W 131°20'617.6
2018-May-21 01:59N 54°21' W 131°10'815.7
2018-May-21 01:30N 54°18' W 130°58'611.5
2018-May-21 01:00N 54°13' W 131°01'917.2
2018-May-21 00:30N 54°05' W 131°01'917.6
2018-May-21 00:00N 53°56' W 130°56'918.5
2018-May-20 23:31N 53°49' W 130°45'918.8
2018-May-20 23:00N 53°43' W 130°33'916.7
2018-May-20 22:30N 53°37' W 130°23'916.8
2018-May-20 21:58N 53°33' W 130°10'7415.4
2018-May-20 17:10N 52°35' W 128°53'315.3
2018-May-20 16:59N 52°32' W 128°53'919.0
2018-May-20 16:31N 52°23' W 128°50'918.6
2018-May-20 16:00N 52°14' W 128°49'917.5
2018-May-20 15:30N 52°06' W 128°45'816.9
2018-May-20 15:01N 51°57' W 128°43'918.4
2018-May-20 14:30N 51°49' W 128°38'918.5
2018-May-20 14:01N 51°40' W 128°33'4265.3
2018-May-20 14:00N 51°36' W 128°30'611.4 250 / 151016.510.8 10.0 5.616.0
2018-May-20 13:30N 51°31' W 128°33'1019.1
2018-May-20 13:01N 51°21' W 128°33'4219.6
2018-May-20 13:00N 51°18' W 128°30'511.3 240 / 81016.110.8 10.0 5.616.0
2018-May-20 12:31N 51°14' W 128°23'918.8
2018-May-20 12:01N 51°09' W 128°11'1019.0
2018-May-20 11:30N 51°03' W 127°59'1019.1
2018-May-20 11:00N 50°58' W 127°46'1019.2
2018-May-20 10:30N 50°52' W 127°34'1019.3
2018-May-20 10:00N 50°48' W 127°20'1019.0
2018-May-20 09:30N 50°45' W 127°06'1019.2
2018-May-20 09:00N 50°41' W 126°52'5427.8
2018-May-20 09:00N 50°36' W 126°54'815.5 280 / 151015.9 5.4 9.3 6.512.5
2018-May-20 08:28N 50°34' W 126°41'3617.7
2018-May-20 06:25N 50°23' W 125°48'1019.4
2018-May-20 05:54N 50°21' W 125°32'614.0
2018-May-20 05:29N 50°18' W 125°25'817.4
2018-May-20 05:00N 50°10' W 125°22'612.7
2018-May-20 04:30N 50°05' W 125°16'814.9
2018-May-20 04:00N 49°58' W 125°10'1019.5
2018-May-20 03:30N 49°51' W 124°60'1121.5
2018-May-20 03:00N 49°44' W 124°48'1121.5
2018-May-20 02:30N 49°37' W 124°35'1122.0
2018-May-20 02:00N 49°28' W 124°24'1123.1
2018-May-20 01:30N 49°23' W 124°08'1523.6
2018-May-20 00:53N 49°20' W 123°46'1023.3
2018-May-20 00:28N 49°19' W 123°31'1022.9
2018-May-20 00:01N 49°19' W 123°15'611.9
2018-May-19 23:30N 49°18' W 123°06'0 0.9
2018-May-19 22:57N 49°17' W 123°07'0 0.0
2018-May-19 22:27N 49°17' W 123°07'0 0.0
2018-May-19 22:00N 49°17' W 123°07'0 0.0
2018-May-19 21:30N 49°17' W 123°07'0 0.0
2018-May-19 21:00N 49°17' W 123°07'0 0.0
2018-May-19 20:27N 49°17' W 123°07'0 0.0
2018-May-19 20:00N 49°17' W 123°07'0 0.0
2018-May-19 19:30N 49°17' W 123°07'0 0.0
2018-May-19 18:50N 49°17' W 123°07'0 0.0
2018-May-19 18:23N 49°17' W 123°07'0 0.0
2018-May-19 17:59N 49°17' W 123°07'0 0.0
2018-May-19 17:23N 49°17' W 123°07'0 0.0
2018-May-19 16:59N 49°17' W 123°07'0 0.0
2018-May-19 16:23N 49°17' W 123°07'0 0.0
2018-May-19 15:59N 49°17' W 123°07'0 0.0
2018-May-19 15:29N 49°17' W 123°07'0 0.0
2018-May-19 14:44N 49°17' W 123°07'0 0.0
2018-May-19 14:29N 49°17' W 123°07'0 0.2
2018-May-19 14:00N 49°17' W 123°07'2 4.3
2018-May-19 13:30N 49°19' W 123°09'510.0
2018-May-19 12:58N 49°19' W 123°17'510.2
2018-May-19 12:27N 49°19' W 123°25'610.2
2018-May-19 11:53N 49°19' W 123°34'610.6
2018-May-19 11:19N 49°19' W 123°43'2 5.5
2018-May-19 11:00N 49°18' W 123°42'5794.4 150 / 121018.110.8 14.012.218.0
2018-May-19 10:59N 49°20' W 123°48'510.5
2018-May-19 10:29N 49°21' W 123°56'510.7
2018-May-19 09:59N 49°22' W 124°04'510.8
2018-May-19 09:30N 49°24' W 124°12'510.7
2018-May-19 09:00N 49°25' W 124°20'5663.2
2018-May-19 09:00N 49°24' W 124°12'1121.8 110 / 201015.310.8 14.010.217.0
2018-May-19 08:30N 49°28' W 124°27'510.2
2018-May-19 07:59N 49°32' W 124°33'510.4
2018-May-19 07:31N 49°35' W 124°38'510.5
2018-May-19 06:59N 49°39' W 124°44'510.4
2018-May-19 06:30N 49°43' W 124°49'510.3
2018-May-19 06:00N 49°47' W 124°54'510.2
2018-May-19 05:30N 49°50' W 124°60'510.3
2018-May-19 05:00N 49°54' W 125°05'510.5
2018-May-19 04:29N 49°58' W 125°11'611.8
2018-May-19 04:00N 50°03' W 125°15'612.8
2018-May-19 03:31N 50°08' W 125°21'815.8
2018-May-19 03:00N 50°16' W 125°24'3114.9
2018-May-19 00:54N 50°28' W 126°09'5315.7
2018-May-18 21:31N 50°50' W 127°26'023.4
2018-May-18 21:30N 50°50' W 127°26'917.2
2018-May-18 21:00N 50°54' W 127°38'816.3
2018-May-18 20:30N 50°59' W 127°48'713.1
2018-May-18 20:01N 51°03' W 127°56'714.7
2018-May-18 19:30N 51°06' W 128°07'816.5
2018-May-18 19:01N 51°10' W 128°18'816.2
2018-May-18 18:31N 51°14' W 128°30'714.2
2018-May-18 18:01N 51°21' W 128°33'815.6
2018-May-18 17:30N 51°29' W 128°33'815.5
2018-May-18 17:01N 51°36' W 128°32'815.3
2018-May-18 16:31N 51°44' W 128°35'815.0
2018-May-18 16:01N 51°49' W 128°43'815.2
2018-May-18 15:30N 51°54' W 128°53'816.0
2018-May-18 15:00N 51°59' W 129°03'815.8
2018-May-18 14:30N 52°04' W 129°13'816.0
2018-May-18 14:00N 52°08' W 129°24'4295.8
2018-May-18 14:00N 52°06' W 129°18'1326.1 230 / 141020.410.8 10.0 7.915.0
2018-May-18 13:30N 52°14' W 129°34'816.3
2018-May-18 13:01N 52°19' W 129°45'816.0
2018-May-18 12:31N 52°25' W 129°53'919.0
2018-May-18 12:01N 52°33' W 130°00'1019.5
2018-May-18 11:30N 52°42' W 130°08'1019.4
2018-May-18 11:01N 52°50' W 130°16'3002177196.2
2018-May-18 11:00N 02°48' W 130°12'30116236.9 210 / 51020.2 5.4 10.0 9.014.0
2018-May-18 10:31N 52°59' W 130°23'1019.2
2018-May-18 10:00N 53°08' W 130°31'1019.4
2018-May-18 09:30N 53°16' W 130°39'1019.5
2018-May-18 09:00N 53°25' W 130°46'919.0
2018-May-18 08:31N 53°34' W 130°51'918.9
2018-May-18 08:00N 53°43' W 130°54'163.0
2018-May-18 08:00N 53°42' W 130°54'1021.6 320 / 81020.010.8 9.7 15.9
2018-May-18 07:31N 53°52' W 130°57'1019.4
2018-May-18 07:00N 54°02' W 130°60'1019.5
2018-May-18 06:31N 54°12' W 131°02'1019.5
2018-May-18 06:00N 54°21' W 131°05'918.6
2018-May-18 05:30N 54°30' W 131°12'1018.0
2018-May-18 04:59N 54°39' W 131°15'919.6
2018-May-18 04:30N 54°48' W 131°11'1019.5
2018-May-18 04:00N 54°57' W 131°08'1916.1
2018-May-18 02:49N 55°14' W 131°25'11 1.1
2018-May-17 17:00N 55°18' W 131°42'23714.7 320 / 161023.110.8 22.0 3.314.0
2018-May-17 00:54N 58°16' W 136°28'821.3
2018-May-17 00:30N 58°18' W 136°13'817.0
2018-May-17 00:00N 58°24' W 136°00'713.1
2018-May-16 23:31N 58°30' W 136°04'816.1
2018-May-16 23:01N 58°38' W 136°06'917.0
2018-May-16 22:30N 58°44' W 136°17'917.4
2018-May-16 22:00N 58°50' W 136°31'6 1.1
2018-May-16 16:12N 58°46' W 136°21'316.7
2018-May-16 15:59N 58°44' W 136°16'816.4
2018-May-16 15:30N 58°38' W 136°06'714.5
2018-May-16 15:01N 58°30' W 136°04'2115.9
2018-May-16 15:00N 58°30' W 136°00'5 9.7 330 / 61024.810.8 4.0 2.811.0
2018-May-16 14:30N 58°25' W 135°58'510.7
2018-May-16 14:00N 58°20' W 135°57'612.1
2018-May-16 13:30N 58°18' W 135°46'713.5
2018-May-16 13:00N 58°16' W 135°34'713.2
2018-May-16 12:30N 58°13' W 135°22'12 7.7
2018-May-16 11:00N 58°12' W 135°00'1212.0 170 / 111023.310.8 6.0 9.0
2018-May-16 10:00N 58°24' W 135°00'37 1.7 270 / 71020.610.8 7.0-0.912.0
2018-May-15 12:00N 59°00' W 135°12'146 6.6 160 / 201022.310.8 8.0 5.812.0
2018-May-14 14:00N 56°36' W 134°24'3618.0 180 / 181021.4 5.4 8.0 5.812.0
2018-May-14 12:00N 56°00' W 134°24'3718.3 250 / 251021.2 5.4 7.0 4.713.0
2018-May-14 10:00N 55°24' W 134°12'5815.9 230 / 351021.310.8 8.0 14.0
2018-May-14 06:19N 54°41' W 133°02'2418.2
2018-May-14 05:01N 54°32' W 132°25'918.5
2018-May-14 04:30N 54°30' W 132°09'918.0
2018-May-14 04:00N 54°28' W 131°54'816.8
2018-May-14 03:30N 54°25' W 131°40'917.6
2018-May-14 03:00N 54°23' W 131°26'917.8
2018-May-14 02:30N 54°21' W 131°11'815.7
2018-May-14 02:00N 54°19' W 130°58'612.0
2018-May-14 01:30N 54°13' W 131°01'815.7
2018-May-14 01:00N 54°05' W 130°59'  

Dump ship's entire track history